DNCA

Details ICAO DNCA (CBQ)
Name CALABAR
Region Nigeria
Timezone Africa/Lagos (UTC+1.0)
Plans Departing 11
Arriving 18
Stats Elevation 210 ft / 64 m (AMSL)
Location 4.976050° 8.347300°
Runways 1
Magnetic Variation 1.110° W
Sunrise 2019-05-20 05:13:45 UTC / 2019-05-20 06:13:45 Local
Sunset 2019-05-20 17:35:19 UTC / 2019-05-20 18:35:19 Local
Advertisement - Login to hide

Runways

ID Width Length Bearing (true/mag) Surface Threshold Overrun Markings Lighting
03 148 ft / 45 m 8,076 ft / 2,462 m 26.78° / 27.89° ASPHALT 0 ft / 0 m 200 ft / 61 m APP EDGE THRESHOLD
21 148 ft / 45 m 8,076 ft / 2,462 m 206.78° / 207.89° ASPHALT 0 ft / 0 m 200 ft / 61 m APP EDGE THRESHOLD ALSF-I

Approach Navaids

Runway Type Ident Frequency Range Bearing (true/mag) Slope Elevation
21 LOC-LOC ICL 109.10 MHz 18 nm / 33 km 208.93° / 210.04° - 200 ft / 61 m (AMSL)

Map

Weather


0- 5 10 15 20 25 30 35+ Temperature / °C

Clouds and Precipitation
Forecast for 2019-05-20 18:00 UTC. Updated an hour ago

Ground ~20,000 ft ~40,000 ft Winds

METAR

Not found

TAF

TAF DNCA 200930Z 2012/2118 24010KT 9999 BKN012 FEW020CB TEMPO 2013/2018 TS BECMG 2019/2021 VRB02KT SCT008 TEMPO 2101/2105 5000 -RA BKN008

Frequencies

Tower 124.50 MHz
Warning: Do not use this data for real-world aviation or navigation. No guarantee of current accuracy is given.